createdAt,value
2023-03-06T00:00:45.559Z,10.10
2023-03-06T00:03:12.371Z,12.17
2023-03-06T00:05:39.979Z,12.87
2023-03-06T00:08:06.921Z,12.97
2023-03-06T00:10:33.970Z,14.10
2023-03-06T00:13:03.554Z,13.97
2023-03-06T00:15:30.408Z,13.63
2023-03-06T00:17:57.711Z,14.33
2023-03-06T00:20:25.497Z,14.10
2023-03-06T00:22:52.601Z,12.83
2023-03-06T00:25:21.340Z,12.27
2023-03-06T00:27:48.946Z,14.30
2023-03-06T00:30:19.024Z,13.83
2023-03-06T00:32:45.821Z,13.67
2023-03-06T00:35:13.617Z,13.00
2023-03-06T00:37:40.769Z,14.50
2023-03-06T00:40:10.907Z,13.77
2023-03-06T00:42:37.594Z,14.33
2023-03-06T00:45:04.694Z,14.40
2023-03-06T00:47:31.313Z,15.50
2023-03-06T00:49:57.992Z,15.53
2023-03-06T00:52:25.047Z,14.53
2023-03-06T00:54:51.750Z,15.30
2023-03-06T00:57:18.531Z,15.20
2023-03-06T00:59:45.952Z,15.60
2023-03-06T01:02:13.000Z,15.60
2023-03-06T01:04:40.060Z,15.53
2023-03-06T01:07:06.682Z,15.63
2023-03-06T01:09:33.360Z,15.80
2023-03-06T01:12:00.116Z,15.03
2023-03-06T01:14:26.956Z,15.37
2023-03-06T01:16:53.710Z,13.37
2023-03-06T01:19:20.490Z,15.07
2023-03-06T01:21:47.194Z,14.07
2023-03-06T01:24:13.892Z,14.47
2023-03-06T01:26:40.584Z,14.00
2023-03-06T01:29:07.417Z,14.83
2023-03-06T01:31:34.245Z,15.30
2023-03-06T01:34:00.894Z,14.50
2023-03-06T01:36:27.552Z,14.87
2023-03-06T01:38:54.307Z,15.67
2023-03-06T01:41:21.485Z,14.37
2023-03-06T01:43:48.407Z,15.00
2023-03-06T01:46:33.298Z,14.13
2023-03-06T01:49:08.951Z,14.43
2023-03-06T01:51:51.131Z,14.77
2023-03-06T01:54:27.185Z,15.43
2023-03-06T01:57:00.553Z,14.67
2023-03-06T01:59:29.117Z,14.90
2023-03-06T02:01:57.189Z,15.63
2023-03-06T02:04:24.630Z,14.87
2023-03-06T02:06:51.667Z,14.43
2023-03-06T02:09:18.585Z,14.80
2023-03-06T02:11:46.229Z,14.20
2023-03-06T02:14:16.108Z,13.30
2023-03-06T02:16:43.553Z,13.27
2023-03-06T02:19:54.652Z,15.33
2023-03-06T02:22:24.364Z,13.97
2023-03-06T02:25:04.398Z,16.67
2023-03-06T02:27:31.602Z,15.60
2023-03-06T02:29:58.287Z,16.60
2023-03-06T02:32:24.976Z,15.10
2023-03-06T02:34:54.800Z,14.50
2023-03-06T02:37:22.380Z,16.03
2023-03-06T02:39:54.452Z,15.57
2023-03-06T02:42:24.760Z,13.60
2023-03-06T02:44:53.561Z,15.27
2023-03-06T02:47:20.295Z,16.60
2023-03-06T02:49:47.073Z,15.77
2023-03-06T02:52:13.708Z,16.03
2023-03-06T02:54:40.488Z,15.83
2023-03-06T02:57:07.116Z,16.87
2023-03-06T02:59:33.787Z,17.50
2023-03-06T03:02:00.394Z,16.13
2023-03-06T03:04:27.117Z,15.90
2023-03-06T03:06:53.790Z,17.90
2023-03-06T03:09:20.472Z,14.57
2023-03-06T03:11:47.125Z,15.00
2023-03-06T03:14:13.812Z,14.70
2023-03-06T03:16:40.489Z,14.33
2023-03-06T03:19:07.236Z,15.73
2023-03-06T03:21:33.898Z,15.27
2023-03-06T03:24:00.773Z,15.13
2023-03-06T03:26:27.440Z,13.87
2023-03-06T03:28:54.045Z,13.30
2023-03-06T03:31:20.692Z,14.37
2023-03-06T03:33:47.706Z,14.07
2023-03-06T03:36:14.423Z,12.67
2023-03-06T03:38:41.182Z,14.60
2023-03-06T03:41:07.974Z,14.57
2023-03-06T03:43:34.616Z,14.20
2023-03-06T03:46:01.255Z,15.17
2023-03-06T03:48:27.851Z,14.00
2023-03-06T03:50:54.490Z,13.37
2023-03-06T03:53:21.128Z,13.67
2023-03-06T03:55:48.684Z,13.90
2023-03-06T03:58:15.642Z,14.07
2023-03-06T04:00:42.357Z,13.47
2023-03-06T04:03:08.986Z,13.30
2023-03-06T04:05:35.907Z,13.00
2023-03-06T04:08:03.193Z,12.73
2023-03-06T04:10:29.928Z,12.27
2023-03-06T04:12:57.075Z,13.20
2023-03-06T04:15:23.861Z,13.03
2023-03-06T04:17:50.496Z,14.63
2023-03-06T04:20:17.293Z,13.63
2023-03-06T04:22:43.968Z,14.50
2023-03-06T04:25:10.737Z,12.57
2023-03-06T04:27:37.458Z,13.30
2023-03-06T04:30:05.757Z,13.10
2023-03-06T04:32:32.538Z,13.87
2023-03-06T04:34:59.202Z,13.47
2023-03-06T04:37:26.494Z,13.80
2023-03-06T04:39:53.377Z,14.53
2023-03-06T04:42:20.004Z,13.30
2023-03-06T04:44:46.675Z,12.37
2023-03-06T04:47:13.425Z,13.97
2023-03-06T04:49:40.097Z,13.53
2023-03-06T04:52:07.399Z,13.57
2023-03-06T04:54:36.155Z,13.87
2023-03-06T04:57:02.888Z,14.17
2023-03-06T04:59:29.634Z,14.77
2023-03-06T05:01:56.443Z,14.23
2023-03-06T05:04:23.146Z,13.40
2023-03-06T05:06:49.878Z,15.27
2023-03-06T05:09:16.771Z,14.23
2023-03-06T05:11:43.394Z,14.93
2023-03-06T05:14:10.063Z,15.57
2023-03-06T05:16:36.717Z,13.77
2023-03-06T05:19:03.542Z,15.60
2023-03-06T05:21:30.194Z,14.57
2023-03-06T05:23:56.885Z,14.20
2023-03-06T05:26:23.496Z,14.70
2023-03-06T05:28:50.112Z,15.37
2023-03-06T05:31:16.999Z,13.37
2023-03-06T05:33:43.690Z,11.90
2023-03-06T05:36:10.389Z,12.93
2023-03-06T05:38:37.162Z,13.10
2023-03-06T05:41:04.072Z,12.40
2023-03-06T05:43:30.792Z,13.83
2023-03-06T05:46:05.165Z,13.70
2023-03-06T05:48:32.574Z,14.33
2023-03-06T05:51:00.687Z,13.90
2023-03-06T05:53:29.166Z,13.43
2023-03-06T05:56:04.322Z,16.03
2023-03-06T05:58:32.145Z,13.40
2023-03-06T06:00:59.037Z,14.40
2023-03-06T06:03:26.037Z,14.13
2023-03-06T06:05:53.165Z,14.37
2023-03-06T06:08:20.801Z,15.13
2023-03-06T06:10:47.523Z,15.70
2023-03-06T06:13:14.306Z,15.20
2023-03-06T06:15:40.937Z,11.73
2023-03-06T06:18:07.594Z,12.27
2023-03-06T06:20:35.453Z,12.93
2023-03-06T06:23:02.275Z,12.47
2023-03-06T06:25:29.072Z,13.50
2023-03-06T06:27:56.884Z,14.63
2023-03-06T06:30:24.212Z,13.43
2023-03-06T06:32:50.887Z,14.50
2023-03-06T06:35:17.713Z,13.57
2023-03-06T06:37:44.509Z,14.33
2023-03-06T06:40:11.735Z,12.97
2023-03-06T06:42:40.269Z,12.03
2023-03-06T06:45:10.996Z,13.30
2023-03-06T06:47:41.070Z,11.53
2023-03-06T06:50:12.507Z,10.90
2023-03-06T06:52:39.163Z,11.63
2023-03-06T06:55:06.295Z,11.03
2023-03-06T06:57:33.056Z,11.20
2023-03-06T06:59:59.710Z,11.90
2023-03-06T07:02:26.377Z,11.57
2023-03-06T07:05:03.591Z,12.40
2023-03-06T07:07:34.217Z,12.23
2023-03-06T07:10:00.904Z,11.87
2023-03-06T07:12:27.545Z,10.70
2023-03-06T07:14:54.181Z,13.03
2023-03-06T07:17:20.825Z,11.83
2023-03-06T07:19:48.245Z,13.60
2023-03-06T07:22:15.013Z,13.27
2023-03-06T07:24:41.708Z,12.30
2023-03-06T07:27:08.423Z,12.70
2023-03-06T07:29:35.192Z,11.87
2023-03-06T07:32:01.973Z,12.60
2023-03-06T07:34:28.824Z,12.90
2023-03-06T07:36:55.545Z,12.93
2023-03-06T07:39:22.143Z,12.73
2023-03-06T07:41:48.788Z,13.10
2023-03-06T07:44:15.415Z,13.53
2023-03-06T07:46:42.116Z,13.70
2023-03-06T07:49:08.906Z,14.17
2023-03-06T07:51:35.577Z,14.60
2023-03-06T07:54:02.222Z,11.97
2023-03-06T07:56:28.917Z,12.70
2023-03-06T07:58:57.038Z,12.77
2023-03-06T08:01:24.223Z,13.20
2023-03-06T08:03:51.472Z,12.70
2023-03-06T08:06:27.048Z,11.90
2023-03-06T08:08:55.744Z,11.43
2023-03-06T08:11:25.911Z,11.50
2023-03-06T08:13:52.969Z,12.23
2023-03-06T08:16:21.367Z,11.70
2023-03-06T08:18:48.353Z,11.77
2023-03-06T08:21:18.094Z,11.03
2023-03-06T08:23:45.744Z,10.70
2023-03-06T08:26:15.522Z,11.67
2023-03-06T08:28:42.448Z,11.63
2023-03-06T08:31:39.508Z,12.13
2023-03-06T08:34:09.525Z,10.47
2023-03-06T08:36:36.530Z,10.77
2023-03-06T08:39:04.018Z,10.97
2023-03-06T08:41:30.968Z,10.40
2023-03-06T08:43:57.913Z,9.87
2023-03-06T08:46:26.342Z,10.20
2023-03-06T08:48:53.440Z,9.87
2023-03-06T08:51:22.555Z,10.17
2023-03-06T08:53:49.953Z,10.03
2023-03-06T08:56:25.711Z,9.80
2023-03-06T08:58:54.161Z,9.50
2023-03-06T09:01:26.846Z,7.67
2023-03-06T09:03:55.966Z,9.03
2023-03-06T09:06:23.505Z,8.10
2023-03-06T09:08:53.777Z,8.23
2023-03-06T09:11:21.765Z,8.27
2023-03-06T09:13:48.516Z,8.43
2023-03-06T09:16:15.277Z,8.83
2023-03-06T09:18:42.361Z,7.53
2023-03-06T09:21:10.140Z,8.33
2023-03-06T09:23:39.422Z,7.87
2023-03-06T09:26:07.026Z,7.97
2023-03-06T09:28:36.688Z,7.77
2023-03-06T09:31:11.589Z,7.43
2023-03-06T09:33:39.038Z,8.00
2023-03-06T09:36:06.870Z,7.33
2023-03-06T09:38:34.792Z,6.70
2023-03-06T09:41:04.683Z,6.33
2023-03-06T09:43:36.246Z,5.73
2023-03-06T09:46:40.672Z,6.67
2023-03-06T09:49:23.061Z,5.90
2023-03-06T09:52:09.619Z,6.23
2023-03-06T09:54:44.411Z,5.80
2023-03-06T09:57:20.729Z,6.40
2023-03-06T09:59:51.414Z,6.37
2023-03-06T10:02:27.141Z,6.20
2023-03-06T10:05:01.072Z,5.40
2023-03-06T10:07:43.723Z,6.07
2023-03-06T10:10:20.424Z,5.63
2023-03-06T10:13:16.215Z,5.57
2023-03-06T10:15:46.134Z,5.73
2023-03-06T10:18:13.654Z,6.07
2023-03-06T10:20:40.322Z,7.57
2023-03-06T10:23:28.539Z,5.10
2023-03-06T10:26:01.174Z,5.30
2023-03-06T10:28:35.117Z,4.80
2023-03-06T10:31:27.941Z,5.37
2023-03-06T10:33:58.493Z,4.73
2023-03-06T10:36:28.508Z,5.40
2023-03-06T10:38:57.105Z,5.30
2023-03-06T10:41:30.726Z,5.47
2023-03-06T10:44:00.405Z,5.20
2023-03-06T10:46:51.544Z,5.17
2023-03-06T10:49:34.543Z,5.23
2023-03-06T10:52:01.235Z,4.83
2023-03-06T10:54:30.659Z,5.13
2023-03-06T10:56:57.750Z,5.17
2023-03-06T10:59:28.354Z,4.63
2023-03-06T11:02:36.173Z,4.90
2023-03-06T11:05:04.553Z,4.67
2023-03-06T11:07:35.971Z,4.70
2023-03-06T11:10:18.968Z,4.60
2023-03-06T11:13:01.402Z,4.57
2023-03-06T11:15:29.548Z,5.40
2023-03-06T11:18:04.421Z,5.83
2023-03-06T11:20:51.929Z,5.87
2023-03-06T11:23:42.345Z,6.83
2023-03-06T11:26:20.026Z,5.90
2023-03-06T11:29:16.107Z,6.40
2023-03-06T11:32:18.614Z,5.90
2023-03-06T11:34:53.152Z,6.73
2023-03-06T11:37:31.818Z,5.93
2023-03-06T11:40:10.768Z,5.60
2023-03-06T11:43:01.378Z,6.07
2023-03-06T11:45:38.095Z,5.77
2023-03-06T11:48:24.635Z,6.03
2023-03-06T11:50:53.595Z,6.53
2023-03-06T11:53:23.173Z,5.60
2023-03-06T11:56:10.336Z,5.63
2023-03-06T11:58:58.188Z,6.00
2023-03-06T12:01:57.590Z,5.60
2023-03-06T12:04:46.061Z,5.90
2023-03-06T12:07:30.442Z,5.70
2023-03-06T12:10:11.488Z,5.90
2023-03-06T12:13:19.213Z,5.30
2023-03-06T12:15:54.533Z,5.23
2023-03-06T12:18:29.874Z,5.00
2023-03-06T12:21:36.666Z,5.83
2023-03-06T12:24:30.605Z,5.30
2023-03-06T12:27:04.512Z,5.00
2023-03-06T12:29:39.988Z,5.37
2023-03-06T12:32:35.108Z,5.33
2023-03-06T12:35:19.960Z,5.33
2023-03-06T12:37:49.430Z,5.43
2023-03-06T12:40:45.530Z,5.87
2023-03-06T12:43:49.590Z,5.30
2023-03-06T12:46:20.368Z,5.63
2023-03-06T12:49:26.273Z,5.57
2023-03-06T12:51:58.562Z,5.33
2023-03-06T12:54:32.399Z,4.73
2023-03-06T12:57:00.759Z,5.43
2023-03-06T12:59:48.001Z,5.67
2023-03-06T13:02:33.534Z,5.07
2023-03-06T13:05:45.394Z,5.57
2023-03-06T13:09:00.682Z,5.30
2023-03-06T13:11:36.431Z,5.07
2023-03-06T13:14:24.773Z,5.50
2023-03-06T13:16:51.804Z,5.83
2023-03-06T13:19:26.528Z,5.60
2023-03-06T13:21:56.212Z,5.70
2023-03-06T13:24:25.436Z,5.63
2023-03-06T13:26:56.777Z,5.20
2023-03-06T13:29:38.516Z,5.37
2023-03-06T13:32:16.214Z,4.93
2023-03-06T13:34:48.559Z,5.50
2023-03-06T13:37:23.161Z,5.03
2023-03-06T13:39:55.529Z,4.67
2023-03-06T13:42:42.587Z,5.70
2023-03-06T13:45:16.277Z,5.00
2023-03-06T13:48:15.825Z,5.00
2023-03-06T13:50:48.131Z,5.30
2023-03-06T13:53:30.032Z,5.40
2023-03-06T13:56:06.564Z,5.73
2023-03-06T13:59:13.790Z,5.17
2023-03-06T14:01:40.750Z,5.60
2023-03-06T14:04:10.940Z,4.77
2023-03-06T14:06:38.402Z,4.83
2023-03-06T14:09:08.270Z,5.20
2023-03-06T14:11:36.340Z,5.17
2023-03-06T14:14:03.715Z,4.90
2023-03-06T14:16:49.053Z,4.90
2023-03-06T14:19:18.562Z,5.30
2023-03-06T14:21:45.281Z,4.17
2023-03-06T14:24:20.184Z,5.27
2023-03-06T14:26:50.222Z,4.30
2023-03-06T14:29:25.598Z,4.77
2023-03-06T14:31:55.103Z,4.17
2023-03-06T14:34:29.314Z,4.57
2023-03-06T14:37:02.723Z,5.03
2023-03-06T14:39:39.404Z,5.30
2023-03-06T14:42:06.002Z,4.40
2023-03-06T14:44:32.640Z,4.87
2023-03-06T14:47:23.194Z,5.13
2023-03-06T14:50:23.549Z,4.60
2023-03-06T14:53:04.293Z,5.23
2023-03-06T14:55:34.671Z,4.63
2023-03-06T14:58:07.607Z,4.73
2023-03-06T15:00:40.729Z,4.97
2023-03-06T15:03:24.721Z,4.67
2023-03-06T15:05:52.204Z,4.60
2023-03-06T15:08:25.145Z,5.23
2023-03-06T15:11:03.474Z,5.10
2023-03-06T15:13:32.417Z,5.70
2023-03-06T15:16:00.742Z,5.10
2023-03-06T15:18:39.638Z,4.93
2023-03-06T15:21:16.163Z,4.90
2023-03-06T15:23:48.326Z,5.43
2023-03-06T15:26:47.302Z,4.80
2023-03-06T15:29:22.936Z,4.80
2023-03-06T15:31:49.830Z,4.67
2023-03-06T15:34:24.427Z,5.73
2023-03-06T15:36:56.668Z,5.20
2023-03-06T15:39:34.623Z,4.97
2023-03-06T15:42:18.208Z,5.70
2023-03-06T15:44:51.005Z,4.83
2023-03-06T15:47:17.904Z,5.13
2023-03-06T15:49:45.152Z,5.70
2023-03-06T15:52:12.092Z,5.80
2023-03-06T15:54:38.844Z,5.93
2023-03-06T15:57:08.458Z,5.83
2023-03-06T15:59:43.428Z,6.47
2023-03-06T16:02:21.652Z,5.97
2023-03-06T16:04:49.370Z,5.90
2023-03-06T16:07:16.428Z,5.50
2023-03-06T16:09:43.732Z,6.73
2023-03-06T16:12:21.675Z,5.67
2023-03-06T16:14:49.470Z,4.70
2023-03-06T16:17:16.867Z,5.87
2023-03-06T16:19:44.203Z,5.80
2023-03-06T16:22:11.152Z,5.77
2023-03-06T16:24:37.795Z,6.37
2023-03-06T16:27:04.609Z,5.80
2023-03-06T16:29:31.430Z,6.97
2023-03-06T16:31:59.035Z,7.03
2023-03-06T16:34:25.807Z,6.17
2023-03-06T16:36:52.616Z,6.60
2023-03-06T16:39:22.581Z,6.90
2023-03-06T16:41:51.569Z,6.10
2023-03-06T16:44:18.792Z,6.90
2023-03-06T16:46:48.076Z,7.27
2023-03-06T16:49:25.263Z,6.80
2023-03-06T16:51:52.765Z,6.23
2023-03-06T16:54:20.067Z,6.83
2023-03-06T16:56:46.770Z,6.57
2023-03-06T16:59:13.756Z,7.30
2023-03-06T17:01:42.922Z,6.73
2023-03-06T17:04:10.237Z,6.73
2023-03-06T17:06:37.033Z,7.50
2023-03-06T17:09:04.573Z,7.27
2023-03-06T17:11:31.319Z,6.83
2023-03-06T17:13:58.301Z,7.20
2023-03-06T17:16:24.986Z,7.07
2023-03-06T17:18:52.348Z,7.10
2023-03-06T17:21:19.148Z,7.53
2023-03-06T17:23:46.049Z,7.00
2023-03-06T17:26:18.740Z,7.00
2023-03-06T17:28:46.386Z,6.57
2023-03-06T17:31:22.121Z,6.60
2023-03-06T17:33:49.588Z,6.90
2023-03-06T17:36:16.965Z,6.93
2023-03-06T17:38:43.629Z,7.00
2023-03-06T17:41:11.727Z,7.00
2023-03-06T17:43:39.559Z,7.90
2023-03-06T17:46:09.278Z,7.70
2023-03-06T17:48:36.841Z,7.27
2023-03-06T17:51:04.382Z,7.03
2023-03-06T17:53:31.539Z,7.77
2023-03-06T17:55:58.304Z,6.90
2023-03-06T17:58:26.316Z,6.93
2023-03-06T18:00:53.705Z,7.77
2023-03-06T18:03:20.556Z,7.33
2023-03-06T18:05:47.239Z,7.07
2023-03-06T18:08:14.060Z,6.93
2023-03-06T18:10:41.752Z,6.53
2023-03-06T18:13:09.752Z,6.50
2023-03-06T18:15:40.786Z,7.07
2023-03-06T18:18:08.562Z,7.53
2023-03-06T18:20:41.078Z,8.43
2023-03-06T18:23:08.063Z,8.43
2023-03-06T18:25:35.321Z,7.57
2023-03-06T18:28:02.051Z,8.80
2023-03-06T18:30:29.030Z,8.60
2023-03-06T18:32:55.849Z,7.37
2023-03-06T18:35:22.657Z,8.87
2023-03-06T18:37:49.305Z,8.93
2023-03-06T18:40:16.221Z,9.60
2023-03-06T18:42:43.260Z,8.67
2023-03-06T18:45:11.048Z,8.73
2023-03-06T18:47:37.827Z,9.13
2023-03-06T18:50:05.403Z,8.63
2023-03-06T18:52:34.768Z,9.40
2023-03-06T18:55:01.431Z,10.57
2023-03-06T18:57:30.215Z,10.23
2023-03-06T18:59:57.092Z,11.30
2023-03-06T19:02:23.844Z,9.53
2023-03-06T19:04:50.780Z,9.90
2023-03-06T19:07:17.573Z,11.77
2023-03-06T19:09:44.359Z,14.90
2023-03-06T19:12:11.698Z,12.53
2023-03-06T19:14:38.874Z,10.77
2023-03-06T19:17:05.527Z,10.00
2023-03-06T19:19:32.295Z,10.23
2023-03-06T19:21:59.948Z,10.67
2023-03-06T19:24:27.152Z,9.50
2023-03-06T19:26:53.896Z,11.00
2023-03-06T19:29:20.594Z,12.43
2023-03-06T19:31:47.402Z,14.10
2023-03-06T19:34:14.232Z,11.70
2023-03-06T19:36:41.211Z,11.73
2023-03-06T19:39:09.526Z,11.07
2023-03-06T19:41:36.471Z,11.97
2023-03-06T19:44:05.058Z,15.40
2023-03-06T19:46:32.822Z,13.07
2023-03-06T19:49:01.720Z,10.53
2023-03-06T19:51:29.064Z,10.43
2023-03-06T19:53:57.349Z,10.33
2023-03-06T19:56:28.658Z,10.37
2023-03-06T19:58:55.994Z,11.23
2023-03-06T20:01:25.025Z,10.97
2023-03-06T20:03:58.673Z,10.47
2023-03-06T20:06:28.078Z,10.47
2023-03-06T20:08:55.071Z,9.93
2023-03-06T20:11:27.222Z,9.70
2023-03-06T20:13:53.971Z,9.93
2023-03-06T20:16:21.205Z,9.37
2023-03-06T20:18:47.970Z,10.03
2023-03-06T20:21:15.386Z,9.53
2023-03-06T20:23:42.834Z,9.03
2023-03-06T20:26:14.895Z,8.47
2023-03-06T20:28:42.549Z,9.17
2023-03-06T20:33:58.820Z,8.03
2023-03-06T20:36:31.949Z,7.83
2023-03-06T20:39:06.679Z,7.93
2023-03-06T20:41:33.666Z,8.47
2023-03-06T20:44:02.502Z,8.23
2023-03-06T20:46:30.304Z,8.37
2023-03-06T20:48:58.244Z,8.33
2023-03-06T20:51:27.884Z,8.87
2023-03-06T20:53:55.572Z,9.67
2023-03-06T20:56:25.592Z,7.63
2023-03-06T20:58:52.647Z,7.93
2023-03-06T21:01:21.425Z,8.90
2023-03-06T21:03:48.870Z,8.13
2023-03-06T21:06:16.472Z,8.67
2023-03-06T21:08:43.681Z,8.10
2023-03-06T21:11:10.452Z,8.20
2023-03-06T21:13:37.280Z,8.37
2023-03-06T21:16:06.621Z,8.80
2023-03-06T21:18:33.595Z,8.87
2023-03-06T21:21:05.464Z,8.63
2023-03-06T21:23:32.143Z,8.97
2023-03-06T21:25:58.893Z,9.20
2023-03-06T21:28:25.626Z,9.20
2023-03-06T21:30:52.299Z,8.93
2023-03-06T21:33:19.030Z,8.70
2023-03-06T21:35:46.220Z,9.43
2023-03-06T21:38:14.160Z,11.17
2023-03-06T21:40:41.038Z,9.60
2023-03-06T21:43:08.814Z,9.60
2023-03-06T21:45:35.689Z,9.30
2023-03-06T21:48:02.558Z,10.70
2023-03-06T21:50:30.142Z,10.00
2023-03-06T21:52:57.362Z,10.83
2023-03-06T21:55:24.087Z,10.03
2023-03-06T21:57:52.267Z,9.27
2023-03-06T22:00:20.039Z,9.00
2023-03-06T22:02:47.144Z,9.37
2023-03-06T22:05:14.094Z,9.63
2023-03-06T22:07:41.180Z,9.83
2023-03-06T22:10:11.951Z,10.17
2023-03-06T22:12:39.927Z,9.43
2023-03-06T22:15:07.289Z,8.77
2023-03-06T22:17:34.056Z,9.13
2023-03-06T22:20:01.078Z,8.90
2023-03-06T22:22:27.775Z,9.03
2023-03-06T22:24:54.551Z,9.40
2023-03-06T22:27:21.724Z,9.30
2023-03-06T22:29:48.423Z,9.20
2023-03-06T22:32:15.461Z,10.23
2023-03-06T22:34:42.221Z,10.13
2023-03-06T22:37:08.871Z,9.90
2023-03-06T22:39:35.561Z,10.40
2023-03-06T22:42:02.199Z,12.27
2023-03-06T22:44:28.928Z,11.10
2023-03-06T22:46:55.960Z,10.20
2023-03-06T22:49:22.622Z,9.43
2023-03-06T22:51:49.292Z,9.63
2023-03-06T22:54:15.942Z,8.80
2023-03-06T22:56:42.610Z,9.07
2023-03-06T22:59:09.270Z,9.80
2023-03-06T23:01:36.076Z,9.10
2023-03-06T23:04:04.819Z,9.00
2023-03-06T23:06:34.592Z,8.80
2023-03-06T23:09:04.621Z,8.73
2023-03-06T23:11:31.759Z,8.63
2023-03-06T23:13:59.033Z,8.70
2023-03-06T23:16:25.866Z,9.10
2023-03-06T23:18:53.559Z,9.33
2023-03-06T23:21:22.883Z,8.70
2023-03-06T23:23:51.436Z,8.80
2023-03-06T23:26:19.844Z,8.03
2023-03-06T23:28:46.803Z,7.73
2023-03-06T23:31:23.736Z,8.33
2023-03-06T23:33:50.495Z,8.80
2023-03-06T23:36:18.381Z,10.00
2023-03-06T23:38:45.442Z,8.63
2023-03-06T23:41:15.078Z,8.63
2023-03-06T23:43:42.374Z,8.87
2023-03-06T23:46:09.572Z,7.90
2023-03-06T23:48:38.354Z,8.53
2023-03-06T23:51:07.271Z,8.93
2023-03-06T23:53:34.027Z,9.77
2023-03-06T23:56:01.117Z,7.53
2023-03-06T23:58:27.814Z,8.40
